Papere Vagabonde
Aviosuperficie Caposile LIKI



Pista 04



Pista 22

Le immagini vengono aggiornate ogni minuto
Cliccare sull'immagine per l'ingrandimento.

METAR LIPZ

2017/08/21 02:20 LIPZ
210220Z 03009KT CAVOK 20/11 Q1019 NOSIG

Mappa Fronti